sensor_id;sensor_type;location;lat;lon;timestamp;temperature;humidity
2825;DHT22;1420;51.324;12.344;2023-10-08T00:01:53;18.40;99.90
2825;DHT22;1420;51.324;12.344;2023-10-08T00:04:23;18.40;99.90
2825;DHT22;1420;51.324;12.344;2023-10-08T00:06:50;18.40;99.90
2825;DHT22;1420;51.324;12.344;2023-10-08T00:09:17;18.40;99.90
2825;DHT22;1420;51.324;12.344;2023-10-08T00:11:45;18.40;99.90
2825;DHT22;1420;51.324;12.344;2023-10-08T00:14:12;18.40;99.90
2825;DHT22;1420;51.324;12.344;2023-10-08T00:16:39;18.30;99.90
2825;DHT22;1420;51.324;12.344;2023-10-08T00:19:06;18.30;99.90
2825;DHT22;1420;51.324;12.344;2023-10-08T00:21:34;18.30;99.90
2825;DHT22;1420;51.324;12.344;2023-10-08T00:24:02;18.30;99.90
2825;DHT22;1420;51.324;12.344;2023-10-08T00:26:29;18.30;99.90
2825;DHT22;1420;51.324;12.344;2023-10-08T00:28:57;18.20;99.90
2825;DHT22;1420;51.324;12.344;2023-10-08T00:31:24;18.30;99.90
2825;DHT22;1420;51.324;12.344;2023-10-08T00:33:51;18.20;99.90
2825;DHT22;1420;51.324;12.344;2023-10-08T00:36:18;18.10;99.90
2825;DHT22;1420;51.324;12.344;2023-10-08T00:38:46;18.20;99.90
2825;DHT22;1420;51.324;12.344;2023-10-08T00:41:16;18.20;99.90
2825;DHT22;1420;51.324;12.344;2023-10-08T00:43:43;18.20;99.90
2825;DHT22;1420;51.324;12.344;2023-10-08T00:46:10;18.30;99.90
2825;DHT22;1420;51.324;12.344;2023-10-08T00:48:53;18.30;99.90
2825;DHT22;1420;51.324;12.344;2023-10-08T00:51:22;18.30;99.90
2825;DHT22;1420;51.324;12.344;2023-10-08T00:54:02;18.20;99.90
2825;DHT22;1420;51.324;12.344;2023-10-08T00:56:35;18.10;99.90
2825;DHT22;1420;51.324;12.344;2023-10-08T00:59:08;18.30;99.90
2825;DHT22;1420;51.324;12.344;2023-10-08T01:01:35;18.20;99.90
2825;DHT22;1420;51.324;12.344;2023-10-08T01:04:02;18.20;99.90
2825;DHT22;1420;51.324;12.344;2023-10-08T01:06:30;18.20;99.90
2825;DHT22;1420;51.324;12.344;2023-10-08T01:08:57;18.20;99.90
2825;DHT22;1420;51.324;12.344;2023-10-08T01:11:24;18.20;99.90
2825;DHT22;1420;51.324;12.344;2023-10-08T01:13:57;18.10;99.90
2825;DHT22;1420;51.324;12.344;2023-10-08T01:16:24;18.10;99.90
2825;DHT22;1420;51.324;12.344;2023-10-08T01:18:51;18.00;99.90
2825;DHT22;1420;51.324;12.344;2023-10-08T01:21:18;18.00;99.90
2825;DHT22;1420;51.324;12.344;2023-10-08T01:23:46;17.90;99.90
2825;DHT22;1420;51.324;12.344;2023-10-08T01:26:13;17.70;99.90
2825;DHT22;1420;51.324;12.344;2023-10-08T01:28:40;17.30;99.90
2825;DHT22;1420;51.324;12.344;2023-10-08T01:31:07;16.80;99.90
2825;DHT22;1420;51.324;12.344;2023-10-08T01:33:34;16.50;99.90
2825;DHT22;1420;51.324;12.344;2023-10-08T01:36:05;16.20;99.90
2825;DHT22;1420;51.324;12.344;2023-10-08T01:38:33;16.00;99.90
2825;DHT22;1420;51.324;12.344;2023-10-08T01:41:00;15.80;99.90
2825;DHT22;1420;51.324;12.344;2023-10-08T01:43:30;15.60;99.90
2825;DHT22;1420;51.324;12.344;2023-10-08T01:45:57;15.20;99.90
2825;DHT22;1420;51.324;12.344;2023-10-08T01:48:25;14.90;99.90
2825;DHT22;1420;51.324;12.344;2023-10-08T01:50:55;14.90;99.90
2825;DHT22;1420;51.324;12.344;2023-10-08T01:53:22;14.60;99.90
2825;DHT22;1420;51.324;12.344;2023-10-08T01:55:50;14.40;99.90
2825;DHT22;1420;51.324;12.344;2023-10-08T01:58:17;14.20;99.90
2825;DHT22;1420;51.324;12.344;2023-10-08T02:00:45;14.00;99.90
2825;DHT22;1420;51.324;12.344;2023-10-08T02:03:14;13.80;99.90
2825;DHT22;1420;51.324;12.344;2023-10-08T02:05:40;13.70;99.90
2825;DHT22;1420;51.324;12.344;2023-10-08T02:08:08;13.50;99.90
2825;DHT22;1420;51.324;12.344;2023-10-08T02:10:36;13.50;99.90
2825;DHT22;1420;51.324;12.344;2023-10-08T02:13:03;13.30;99.90
2825;DHT22;1420;51.324;12.344;2023-10-08T02:15:30;13.20;99.90
2825;DHT22;1420;51.324;12.344;2023-10-08T02:17:57;13.20;99.90
2825;DHT22;1420;51.324;12.344;2023-10-08T02:20:25;13.10;99.90
2825;DHT22;1420;51.324;12.344;2023-10-08T02:22:52;13.00;99.90
2825;DHT22;1420;51.324;12.344;2023-10-08T02:25:19;12.90;99.90
2825;DHT22;1420;51.324;12.344;2023-10-08T02:27:46;12.90;99.90
2825;DHT22;1420;51.324;12.344;2023-10-08T02:30:14;12.90;99.90
2825;DHT22;1420;51.324;12.344;2023-10-08T02:32:41;12.80;99.90
2825;DHT22;1420;51.324;12.344;2023-10-08T02:35:09;12.80;99.90
2825;DHT22;1420;51.324;12.344;2023-10-08T02:37:37;12.70;99.90
2825;DHT22;1420;51.324;12.344;2023-10-08T02:40:08;12.70;99.90
2825;DHT22;1420;51.324;12.344;2023-10-08T02:42:51;12.60;99.90
2825;DHT22;1420;51.324;12.344;2023-10-08T02:45:18;12.60;99.90
2825;DHT22;1420;51.324;12.344;2023-10-08T02:47:45;12.60;99.90
2825;DHT22;1420;51.324;12.344;2023-10-08T02:50:12;12.50;99.90
2825;DHT22;1420;51.324;12.344;2023-10-08T02:52:39;12.40;99.90
2825;DHT22;1420;51.324;12.344;2023-10-08T02:55:07;12.40;99.90
2825;DHT22;1420;51.324;12.344;2023-10-08T02:57:34;12.30;99.90
2825;DHT22;1420;51.324;12.344;2023-10-08T03:00:02;12.20;99.90
2825;DHT22;1420;51.324;12.344;2023-10-08T03:02:29;12.20;99.90
2825;DHT22;1420;51.324;12.344;2023-10-08T03:04:56;12.20;99.90
2825;DHT22;1420;51.324;12.344;2023-10-08T03:07:23;12.20;99.90
2825;DHT22;1420;51.324;12.344;2023-10-08T03:09:51;12.10;99.90
2825;DHT22;1420;51.324;12.344;2023-10-08T03:12:18;12.10;99.90
2825;DHT22;1420;51.324;12.344;2023-10-08T03:14:45;12.10;99.90
2825;DHT22;1420;51.324;12.344;2023-10-08T03:17:16;12.00;99.90
2825;DHT22;1420;51.324;12.344;2023-10-08T03:19:43;12.00;99.90
2825;DHT22;1420;51.324;12.344;2023-10-08T03:22:10;12.00;99.90
2825;DHT22;1420;51.324;12.344;2023-10-08T03:24:38;12.00;99.90
2825;DHT22;1420;51.324;12.344;2023-10-08T03:27:05;12.00;99.90
2825;DHT22;1420;51.324;12.344;2023-10-08T03:29:33;11.90;99.90
2825;DHT22;1420;51.324;12.344;2023-10-08T03:32:00;11.90;99.90
2825;DHT22;1420;51.324;12.344;2023-10-08T03:34:27;11.90;99.90
2825;DHT22;1420;51.324;12.344;2023-10-08T03:36:54;11.80;99.90
2825;DHT22;1420;51.324;12.344;2023-10-08T03:39:21;11.80;99.90
2825;DHT22;1420;51.324;12.344;2023-10-08T03:41:49;11.80;99.90
2825;DHT22;1420;51.324;12.344;2023-10-08T03:44:34;11.80;99.90
2825;DHT22;1420;51.324;12.344;2023-10-08T03:47:01;11.80;99.90
2825;DHT22;1420;51.324;12.344;2023-10-08T03:49:28;11.80;99.90
2825;DHT22;1420;51.324;12.344;2023-10-08T03:51:55;11.80;99.90
2825;DHT22;1420;51.324;12.344;2023-10-08T03:54:23;11.80;99.90
2825;DHT22;1420;51.324;12.344;2023-10-08T03:56:56;11.80;99.90
2825;DHT22;1420;51.324;12.344;2023-10-08T03:59:23;11.70;99.90
2825;DHT22;1420;51.324;12.344;2023-10-08T04:01:56;11.70;99.90
2825;DHT22;1420;51.324;12.344;2023-10-08T04:04:23;11.70;99.90
2825;DHT22;1420;51.324;12.344;2023-10-08T04:06:50;11.70;99.90
2825;DHT22;1420;51.324;12.344;2023-10-08T04:09:17;11.60;99.90
2825;DHT22;1420;51.324;12.344;2023-10-08T04:11:52;11.60;99.90
2825;DHT22;1420;51.324;12.344;2023-10-08T04:14:19;11.60;99.90
2825;DHT22;1420;51.324;12.344;2023-10-08T04:16:46;11.50;99.90
2825;DHT22;1420;51.324;12.344;2023-10-08T04:19:13;11.50;99.90
2825;DHT22;1420;51.324;12.344;2023-10-08T04:21:40;11.50;99.90
2825;DHT22;1420;51.324;12.344;2023-10-08T04:24:08;11.50;99.90
2825;DHT22;1420;51.324;12.344;2023-10-08T04:26:35;11.50;99.90
2825;DHT22;1420;51.324;12.344;2023-10-08T04:29:02;11.50;99.90
2825;DHT22;1420;51.324;12.344;2023-10-08T04:31:29;11.50;99.90
2825;DHT22;1420;51.324;12.344;2023-10-08T04:33:57;11.50;99.90
2825;DHT22;1420;51.324;12.344;2023-10-08T04:36:24;11.40;99.90
2825;DHT22;1420;51.324;12.344;2023-10-08T04:38:51;11.40;99.90
2825;DHT22;1420;51.324;12.344;2023-10-08T04:41:18;11.30;99.90
2825;DHT22;1420;51.324;12.344;2023-10-08T04:43:45;11.30;99.90
2825;DHT22;1420;51.324;12.344;2023-10-08T04:46:13;11.30;99.90
2825;DHT22;1420;51.324;12.344;2023-10-08T04:48:46;11.30;99.90
2825;DHT22;1420;51.324;12.344;2023-10-08T04:51:14;11.20;99.90
2825;DHT22;1420;51.324;12.344;2023-10-08T04:53:41;11.10;99.90
2825;DHT22;1420;51.324;12.344;2023-10-08T04:56:08;11.10;99.90
2825;DHT22;1420;51.324;12.344;2023-10-08T04:58:40;11.10;99.90
2825;DHT22;1420;51.324;12.344;2023-10-08T05:01:07;11.10;99.90
2825;DHT22;1420;51.324;12.344;2023-10-08T05:03:40;11.10;99.90
2825;DHT22;1420;51.324;12.344;2023-10-08T05:06:07;11.10;99.90
2825;DHT22;1420;51.324;12.344;2023-10-08T05:08:35;11.10;99.90
2825;DHT22;1420;51.324;12.344;2023-10-08T05:11:03;11.10;99.90
2825;DHT22;1420;51.324;12.344;2023-10-08T05:13:30;11.00;99.90
2825;DHT22;1420;51.324;12.344;2023-10-08T05:15:57;10.90;99.90
2825;DHT22;1420;51.324;12.344;2023-10-08T05:18:29;10.80;99.90
2825;DHT22;1420;51.324;12.344;2023-10-08T05:21:02;10.80;99.90
2825;DHT22;1420;51.324;12.344;2023-10-08T05:23:29;10.80;99.90
2825;DHT22;1420;51.324;12.344;2023-10-08T05:25:59;10.80;99.90
2825;DHT22;1420;51.324;12.344;2023-10-08T05:28:33;10.70;99.90
2825;DHT22;1420;51.324;12.344;2023-10-08T05:31:09;10.70;99.90
2825;DHT22;1420;51.324;12.344;2023-10-08T05:33:38;10.70;99.90
2825;DHT22;1420;51.324;12.344;2023-10-08T05:36:24;10.70;99.90
2825;DHT22;1420;51.324;12.344;2023-10-08T05:39:06;10.60;99.90
2825;DHT22;1420;51.324;12.344;2023-10-08T05:41:39;11.40;99.90
2825;DHT22;1420;51.324;12.344;2023-10-08T05:44:06;11.40;99.90
2825;DHT22;1420;51.324;12.344;2023-10-08T05:46:39;11.60;99.90
2825;DHT22;1420;51.324;12.344;2023-10-08T05:49:07;11.60;99.90
2825;DHT22;1420;51.324;12.344;2023-10-08T05:51:49;11.60;99.90
2825;DHT22;1420;51.324;12.344;2023-10-08T05:54:31;11.40;99.90
2825;DHT22;1420;51.324;12.344;2023-10-08T05:57:08;11.40;99.90
2825;DHT22;1420;51.324;12.344;2023-10-08T05:59:47;11.30;99.90
2825;DHT22;1420;51.324;12.344;2023-10-08T06:02:21;11.20;99.90
2825;DHT22;1420;51.324;12.344;2023-10-08T06:04:53;11.00;99.90
2825;DHT22;1420;51.324;12.344;2023-10-08T06:07:37;10.80;99.90
2825;DHT22;1420;51.324;12.344;2023-10-08T06:10:02;10.70;99.90
2825;DHT22;1420;51.324;12.344;2023-10-08T06:12:30;10.70;99.90
2825;DHT22;1420;51.324;12.344;2023-10-08T06:14:57;10.80;99.90
2825;DHT22;1420;51.324;12.344;2023-10-08T06:17:30;10.70;99.90
2825;DHT22;1420;51.324;12.344;2023-10-08T06:20:01;10.70;99.90
2825;DHT22;1420;51.324;12.344;2023-10-08T06:22:28;10.80;99.90
2825;DHT22;1420;51.324;12.344;2023-10-08T06:24:55;10.60;99.90
2825;DHT22;1420;51.324;12.344;2023-10-08T06:27:22;10.60;99.90
2825;DHT22;1420;51.324;12.344;2023-10-08T06:29:50;10.70;99.90
2825;DHT22;1420;51.324;12.344;2023-10-08T06:32:17;10.80;99.90
2825;DHT22;1420;51.324;12.344;2023-10-08T06:34:44;10.70;99.90
2825;DHT22;1420;51.324;12.344;2023-10-08T06:37:11;10.70;99.90
2825;DHT22;1420;51.324;12.344;2023-10-08T06:39:39;10.80;99.90
2825;DHT22;1420;51.324;12.344;2023-10-08T06:42:11;10.70;99.90
2825;DHT22;1420;51.324;12.344;2023-10-08T06:44:38;10.70;99.90
2825;DHT22;1420;51.324;12.344;2023-10-08T06:47:06;10.80;99.90
2825;DHT22;1420;51.324;12.344;2023-10-08T06:49:33;10.80;99.90
2825;DHT22;1420;51.324;12.344;2023-10-08T06:52:01;10.80;99.90
2825;DHT22;1420;51.324;12.344;2023-10-08T06:54:27;10.80;99.90
2825;DHT22;1420;51.324;12.344;2023-10-08T06:56:54;10.80;99.90
2825;DHT22;1420;51.324;12.344;2023-10-08T06:59:22;10.80;99.90
2825;DHT22;1420;51.324;12.344;2023-10-08T07:01:50;10.70;99.90
2825;DHT22;1420;51.324;12.344;2023-10-08T07:04:17;10.80;99.90
2825;DHT22;1420;51.324;12.344;2023-10-08T07:06:44;10.80;99.90
2825;DHT22;1420;51.324;12.344;2023-10-08T07:09:12;10.80;99.90
2825;DHT22;1420;51.324;12.344;2023-10-08T07:11:55;10.90;99.90
2825;DHT22;1420;51.324;12.344;2023-10-08T07:14:24;10.90;99.90
2825;DHT22;1420;51.324;12.344;2023-10-08T07:16:55;10.80;99.90
2825;DHT22;1420;51.324;12.344;2023-10-08T07:19:22;10.80;99.90
2825;DHT22;1420;51.324;12.344;2023-10-08T07:21:49;10.60;99.90
2825;DHT22;1420;51.324;12.344;2023-10-08T07:24:16;10.80;99.90
2825;DHT22;1420;51.324;12.344;2023-10-08T07:26:44;11.30;99.90
2825;DHT22;1420;51.324;12.344;2023-10-08T07:29:14;11.60;99.90
2825;DHT22;1420;51.324;12.344;2023-10-08T07:31:40;11.20;99.90
2825;DHT22;1420;51.324;12.344;2023-10-08T07:34:08;10.80;99.90
2825;DHT22;1420;51.324;12.344;2023-10-08T07:36:43;10.80;99.90
2825;DHT22;1420;51.324;12.344;2023-10-08T07:39:09;10.70;99.90
2825;DHT22;1420;51.324;12.344;2023-10-08T07:41:37;10.70;99.90
2825;DHT22;1420;51.324;12.344;2023-10-08T07:44:04;10.60;99.90
2825;DHT22;1420;51.324;12.344;2023-10-08T07:46:31;10.70;99.90
2825;DHT22;1420;51.324;12.344;2023-10-08T07:48:58;10.50;99.90
2825;DHT22;1420;51.324;12.344;2023-10-08T07:51:25;10.50;99.90
2825;DHT22;1420;51.324;12.344;2023-10-08T07:53:53;10.50;99.90
2825;DHT22;1420;51.324;12.344;2023-10-08T07:56:22;12.50;99.90
2825;DHT22;1420;51.324;12.344;2023-10-08T07:58:49;11.70;99.90
2825;DHT22;1420;51.324;12.344;2023-10-08T08:01:16;12.10;99.90
2825;DHT22;1420;51.324;12.344;2023-10-08T08:03:43;11.60;99.90
2825;DHT22;1420;51.324;12.344;2023-10-08T08:06:10;11.10;99.90
2825;DHT22;1420;51.324;12.344;2023-10-08T08:08:38;11.50;99.90
2825;DHT22;1420;51.324;12.344;2023-10-08T08:11:05;12.00;99.90
2825;DHT22;1420;51.324;12.344;2023-10-08T08:13:34;12.10;99.90
2825;DHT22;1420;51.324;12.344;2023-10-08T08:16:00;12.10;99.90
2825;DHT22;1420;51.324;12.344;2023-10-08T08:18:27;12.80;99.90
2825;DHT22;1420;51.324;12.344;2023-10-08T08:20:54;12.20;99.90
2825;DHT22;1420;51.324;12.344;2023-10-08T08:23:22;12.00;99.90
2825;DHT22;1420;51.324;12.344;2023-10-08T08:25:49;11.60;99.90
2825;DHT22;1420;51.324;12.344;2023-10-08T08:28:22;11.40;99.90
2825;DHT22;1420;51.324;12.344;2023-10-08T08:30:49;11.00;99.90
2825;DHT22;1420;51.324;12.344;2023-10-08T08:33:16;11.00;99.90
2825;DHT22;1420;51.324;12.344;2023-10-08T08:35:44;11.10;99.90
2825;DHT22;1420;51.324;12.344;2023-10-08T08:38:11;11.10;99.90
2825;DHT22;1420;51.324;12.344;2023-10-08T08:40:38;11.10;99.90
2825;DHT22;1420;51.324;12.344;2023-10-08T08:43:05;11.10;99.90
2825;DHT22;1420;51.324;12.344;2023-10-08T08:45:32;11.20;99.90
2825;DHT22;1420;51.324;12.344;2023-10-08T08:48:00;11.20;99.90
2825;DHT22;1420;51.324;12.344;2023-10-08T08:50:27;11.40;99.90
2825;DHT22;1420;51.324;12.344;2023-10-08T08:52:54;11.20;99.90
2825;DHT22;1420;51.324;12.344;2023-10-08T08:55:21;11.20;99.90
2825;DHT22;1420;51.324;12.344;2023-10-08T08:57:49;11.30;99.90
2825;DHT22;1420;51.324;12.344;2023-10-08T09:00:16;11.40;99.90
2825;DHT22;1420;51.324;12.344;2023-10-08T09:02:44;11.40;99.90
2825;DHT22;1420;51.324;12.344;2023-10-08T09:05:11;11.50;99.90
2825;DHT22;1420;51.324;12.344;2023-10-08T09:07:56;11.70;99.90
2825;DHT22;1420;51.324;12.344;2023-10-08T09:10:23;11.60;99.90
2825;DHT22;1420;51.324;12.344;2023-10-08T09:12:51;11.70;99.90
2825;DHT22;1420;51.324;12.344;2023-10-08T09:15:18;11.60;99.90
2825;DHT22;1420;51.324;12.344;2023-10-08T09:17:45;11.60;99.90
2825;DHT22;1420;51.324;12.344;2023-10-08T09:20:12;11.80;99.90
2825;DHT22;1420;51.324;12.344;2023-10-08T09:22:39;12.00;99.90
2825;DHT22;1420;51.324;12.344;2023-10-08T09:25:07;12.00;99.90
2825;DHT22;1420;51.324;12.344;2023-10-08T09:27:34;12.20;99.90
2825;DHT22;1420;51.324;12.344;2023-10-08T09:30:03;12.40;99.90
2825;DHT22;1420;51.324;12.344;2023-10-08T09:32:29;12.40;99.90
2825;DHT22;1420;51.324;12.344;2023-10-08T09:34:56;12.40;99.90
2825;DHT22;1420;51.324;12.344;2023-10-08T09:37:23;12.40;99.90
2825;DHT22;1420;51.324;12.344;2023-10-08T09:39:50;12.40;99.90
2825;DHT22;1420;51.324;12.344;2023-10-08T09:42:18;12.30;99.90
2825;DHT22;1420;51.324;12.344;2023-10-08T09:44:45;12.40;99.90
2825;DHT22;1420;51.324;12.344;2023-10-08T09:47:12;12.10;99.90
2825;DHT22;1420;51.324;12.344;2023-10-08T09:49:41;12.20;99.90
2825;DHT22;1420;51.324;12.344;2023-10-08T09:52:09;12.20;99.90
2825;DHT22;1420;51.324;12.344;2023-10-08T09:54:51;12.40;99.90
2825;DHT22;1420;51.324;12.344;2023-10-08T09:57:16;12.20;99.90
2825;DHT22;1420;51.324;12.344;2023-10-08T09:59:43;12.30;99.90
2825;DHT22;1420;51.324;12.344;2023-10-08T10:02:10;12.40;99.90
2825;DHT22;1420;51.324;12.344;2023-10-08T10:04:43;12.10;99.90
2825;DHT22;1420;51.324;12.344;2023-10-08T10:07:10;12.10;99.90
2825;DHT22;1420;51.324;12.344;2023-10-08T10:09:37;12.20;99.90
2825;DHT22;1420;51.324;12.344;2023-10-08T10:12:04;12.20;99.90
2825;DHT22;1420;51.324;12.344;2023-10-08T10:14:40;12.30;99.90
2825;DHT22;1420;51.324;12.344;2023-10-08T10:17:09;12.00;99.90
2825;DHT22;1420;51.324;12.344;2023-10-08T10:19:36;12.40;99.90
2825;DHT22;1420;51.324;12.344;2023-10-08T10:22:03;12.50;99.90
2825;DHT22;1420;51.324;12.344;2023-10-08T10:24:32;12.30;99.90
2825;DHT22;1420;51.324;12.344;2023-10-08T10:27:10;12.40;99.90
2825;DHT22;1420;51.324;12.344;2023-10-08T10:29:37;12.60;99.90
2825;DHT22;1420;51.324;12.344;2023-10-08T10:32:04;12.90;99.90
2825;DHT22;1420;51.324;12.344;2023-10-08T10:34:31;13.00;99.90
2825;DHT22;1420;51.324;12.344;2023-10-08T10:36:59;13.30;99.90
2825;DHT22;1420;51.324;12.344;2023-10-08T10:39:26;13.30;99.90
2825;DHT22;1420;51.324;12.344;2023-10-08T10:41:53;13.00;99.90
2825;DHT22;1420;51.324;12.344;2023-10-08T10:44:24;12.90;99.90
2825;DHT22;1420;51.324;12.344;2023-10-08T10:46:51;13.00;99.90
2825;DHT22;1420;51.324;12.344;2023-10-08T10:49:18;12.90;99.90
2825;DHT22;1420;51.324;12.344;2023-10-08T10:51:49;13.00;99.90
2825;DHT22;1420;51.324;12.344;2023-10-08T10:54:16;13.10;99.90
2825;DHT22;1420;51.324;12.344;2023-10-08T10:56:42;13.30;99.90
2825;DHT22;1420;51.324;12.344;2023-10-08T10:59:10;13.40;99.90
2825;DHT22;1420;51.324;12.344;2023-10-08T11:01:45;13.60;99.90
2825;DHT22;1420;51.324;12.344;2023-10-08T11:04:12;13.60;99.90
2825;DHT22;1420;51.324;12.344;2023-10-08T11:06:39;13.80;99.90
2825;DHT22;1420;51.324;12.344;2023-10-08T11:09:06;14.00;99.90
2825;DHT22;1420;51.324;12.344;2023-10-08T11:11:33;14.10;99.90
2825;DHT22;1420;51.324;12.344;2023-10-08T11:14:01;14.30;99.90
2825;DHT22;1420;51.324;12.344;2023-10-08T11:16:28;14.40;99.90
2825;DHT22;1420;51.324;12.344;2023-10-08T11:18:55;14.40;99.90
2825;DHT22;1420;51.324;12.344;2023-10-08T11:21:24;14.50;99.90
2825;DHT22;1420;51.324;12.344;2023-10-08T11:23:52;14.50;99.90
2825;DHT22;1420;51.324;12.344;2023-10-08T11:26:20;14.70;99.90
2825;DHT22;1420;51.324;12.344;2023-10-08T11:28:47;14.90;99.90
2825;DHT22;1420;51.324;12.344;2023-10-08T11:31:14;14.90;99.90
2825;DHT22;1420;51.324;12.344;2023-10-08T11:33:41;14.90;99.90
2825;DHT22;1420;51.324;12.344;2023-10-08T11:36:09;15.10;99.90
2825;DHT22;1420;51.324;12.344;2023-10-08T11:38:40;15.40;99.90
2825;DHT22;1420;51.324;12.344;2023-10-08T11:41:12;15.70;99.90
2825;DHT22;1420;51.324;12.344;2023-10-08T11:43:40;15.60;99.90
2825;DHT22;1420;51.324;12.344;2023-10-08T11:46:07;15.30;99.90
2825;DHT22;1420;51.324;12.344;2023-10-08T11:48:34;15.40;99.90
2825;DHT22;1420;51.324;12.344;2023-10-08T11:51:01;15.10;99.90
2825;DHT22;1420;51.324;12.344;2023-10-08T11:53:29;14.70;99.90
2825;DHT22;1420;51.324;12.344;2023-10-08T11:55:56;14.70;99.90
2825;DHT22;1420;51.324;12.344;2023-10-08T11:58:23;14.10;99.90
2825;DHT22;1420;51.324;12.344;2023-10-08T12:00:50;14.30;99.90
2825;DHT22;1420;51.324;12.344;2023-10-08T12:03:17;14.30;99.90
2825;DHT22;1420;51.324;12.344;2023-10-08T12:05:45;14.10;99.90
2825;DHT22;1420;51.324;12.344;2023-10-08T12:08:15;14.10;99.90
2825;DHT22;1420;51.324;12.344;2023-10-08T12:10:44;14.10;99.90
2825;DHT22;1420;51.324;12.344;2023-10-08T12:13:11;14.20;99.90
2825;DHT22;1420;51.324;12.344;2023-10-08T12:15:38;14.30;99.90
2825;DHT22;1420;51.324;12.344;2023-10-08T12:18:06;14.70;99.90
2825;DHT22;1420;51.324;12.344;2023-10-08T12:20:36;14.90;99.90
2825;DHT22;1420;51.324;12.344;2023-10-08T12:23:04;15.10;99.90
2825;DHT22;1420;51.324;12.344;2023-10-08T12:25:32;14.90;99.90
2825;DHT22;1420;51.324;12.344;2023-10-08T12:28:00;15.10;99.90
2825;DHT22;1420;51.324;12.344;2023-10-08T12:30:26;14.70;99.90
2825;DHT22;1420;51.324;12.344;2023-10-08T12:32:53;14.70;99.90
2825;DHT22;1420;51.324;12.344;2023-10-08T12:35:21;14.50;99.90
2825;DHT22;1420;51.324;12.344;2023-10-08T12:37:48;14.60;99.90
2825;DHT22;1420;51.324;12.344;2023-10-08T12:40:15;14.60;99.90
2825;DHT22;1420;51.324;12.344;2023-10-08T12:42:52;14.80;99.90
2825;DHT22;1420;51.324;12.344;2023-10-08T12:45:19;14.80;99.90
2825;DHT22;1420;51.324;12.344;2023-10-08T12:47:48;15.10;99.90
2825;DHT22;1420;51.324;12.344;2023-10-08T12:50:15;15.00;99.90
2825;DHT22;1420;51.324;12.344;2023-10-08T12:52:43;14.80;99.90
2825;DHT22;1420;51.324;12.344;2023-10-08T12:55:10;15.00;99.90
2825;DHT22;1420;51.324;12.344;2023-10-08T12:57:37;14.80;99.90
2825;DHT22;1420;51.324;12.344;2023-10-08T13:00:05;15.00;99.90
2825;DHT22;1420;51.324;12.344;2023-10-08T13:02:33;14.90;99.90
2825;DHT22;1420;51.324;12.344;2023-10-08T13:05:00;15.00;99.90
2825;DHT22;1420;51.324;12.344;2023-10-08T13:07:27;15.20;99.90
2825;DHT22;1420;51.324;12.344;2023-10-08T13:09:54;15.10;99.90
2825;DHT22;1420;51.324;12.344;2023-10-08T13:12:21;15.30;99.90
2825;DHT22;1420;51.324;12.344;2023-10-08T13:14:49;15.40;99.90
2825;DHT22;1420;51.324;12.344;2023-10-08T13:17:16;15.50;99.90
2825;DHT22;1420;51.324;12.344;2023-10-08T13:19:43;15.10;99.90
2825;DHT22;1420;51.324;12.344;2023-10-08T13:22:10;14.90;99.90
2825;DHT22;1420;51.324;12.344;2023-10-08T13:24:37;15.10;99.90
2825;DHT22;1420;51.324;12.344;2023-10-08T13:27:05;15.20;99.90
2825;DHT22;1420;51.324;12.344;2023-10-08T13:29:32;15.10;99.90
2825;DHT22;1420;51.324;12.344;2023-10-08T13:31:59;14.90;99.90
2825;DHT22;1420;51.324;12.344;2023-10-08T13:34:26;14.60;99.90
2825;DHT22;1420;51.324;12.344;2023-10-08T13:36:53;14.50;99.90
2825;DHT22;1420;51.324;12.344;2023-10-08T13:39:21;14.50;99.90
2825;DHT22;1420;51.324;12.344;2023-10-08T13:41:48;14.50;99.90
2825;DHT22;1420;51.324;12.344;2023-10-08T13:44:15;14.60;99.90
2825;DHT22;1420;51.324;12.344;2023-10-08T13:46:42;14.60;99.90
2825;DHT22;1420;51.324;12.344;2023-10-08T13:49:09;14.50;99.90
2825;DHT22;1420;51.324;12.344;2023-10-08T13:51:37;14.40;99.90
2825;DHT22;1420;51.324;12.344;2023-10-08T13:54:04;14.40;99.90
2825;DHT22;1420;51.324;12.344;2023-10-08T13:56:32;14.60;99.90
2825;DHT22;1420;51.324;12.344;2023-10-08T13:58:59;14.70;99.90
2825;DHT22;1420;51.324;12.344;2023-10-08T14:01:30;14.80;99.90
2825;DHT22;1420;51.324;12.344;2023-10-08T14:03:57;15.00;99.90
2825;DHT22;1420;51.324;12.344;2023-10-08T14:06:25;15.10;99.90
2825;DHT22;1420;51.324;12.344;2023-10-08T14:08:52;15.10;99.90
2825;DHT22;1420;51.324;12.344;2023-10-08T14:11:20;15.20;99.90
2825;DHT22;1420;51.324;12.344;2023-10-08T14:13:47;15.20;99.90
2825;DHT22;1420;51.324;12.344;2023-10-08T14:16:14;15.10;99.90
2825;DHT22;1420;51.324;12.344;2023-10-08T14:18:41;15.10;99.90
2825;DHT22;1420;51.324;12.344;2023-10-08T14:21:09;15.00;99.90
2825;DHT22;1420;51.324;12.344;2023-10-08T14:23:36;14.90;99.90
2825;DHT22;1420;51.324;12.344;2023-10-08T14:26:04;14.90;99.90
2825;DHT22;1420;51.324;12.344;2023-10-08T14:28:31;15.00;99.90
2825;DHT22;1420;51.324;12.344;2023-10-08T14:31:03;14.90;99.90
2825;DHT22;1420;51.324;12.344;2023-10-08T14:33:31;14.80;99.90
2825;DHT22;1420;51.324;12.344;2023-10-08T14:35:58;14.70;99.90
2825;DHT22;1420;51.324;12.344;2023-10-08T14:38:31;14.70;99.90
2825;DHT22;1420;51.324;12.344;2023-10-08T14:41:04;14.60;99.90
2825;DHT22;1420;51.324;12.344;2023-10-08T14:43:36;14.50;99.90
2825;DHT22;1420;51.324;12.344;2023-10-08T14:46:03;14.60;99.90
2825;DHT22;1420;51.324;12.344;2023-10-08T14:48:31;14.40;99.90
2825;DHT22;1420;51.324;12.344;2023-10-08T14:50:59;14.30;99.90
2825;DHT22;1420;51.324;12.344;2023-10-08T14:53:26;14.30;99.90
2825;DHT22;1420;51.324;12.344;2023-10-08T14:55:53;14.20;99.90
2825;DHT22;1420;51.324;12.344;2023-10-08T14:58:20;14.20;99.90
2825;DHT22;1420;51.324;12.344;2023-10-08T15:00:47;14.00;99.90
2825;DHT22;1420;51.324;12.344;2023-10-08T15:03:15;14.10;99.90
2825;DHT22;1420;51.324;12.344;2023-10-08T15:05:42;14.20;99.90
2825;DHT22;1420;51.324;12.344;2023-10-08T15:08:09;14.20;99.90
2825;DHT22;1420;51.324;12.344;2023-10-08T15:10:36;14.30;99.90
2825;DHT22;1420;51.324;12.344;2023-10-08T15:13:04;14.20;99.90
2825;DHT22;1420;51.324;12.344;2023-10-08T15:15:31;14.20;99.90
2825;DHT22;1420;51.324;12.344;2023-10-08T15:17:58;14.20;99.90
2825;DHT22;1420;51.324;12.344;2023-10-08T15:20:25;14.10;99.90
2825;DHT22;1420;51.324;12.344;2023-10-08T15:22:52;14.00;99.90
2825;DHT22;1420;51.324;12.344;2023-10-08T15:25:20;13.90;99.90
2825;DHT22;1420;51.324;12.344;2023-10-08T15:27:47;13.80;99.90
2825;DHT22;1420;51.324;12.344;2023-10-08T15:30:15;13.60;99.90
2825;DHT22;1420;51.324;12.344;2023-10-08T15:32:42;13.50;99.90
2825;DHT22;1420;51.324;12.344;2023-10-08T15:35:11;13.50;99.90
2825;DHT22;1420;51.324;12.344;2023-10-08T15:37:38;13.50;99.90
2825;DHT22;1420;51.324;12.344;2023-10-08T15:40:06;13.40;99.90
2825;DHT22;1420;51.324;12.344;2023-10-08T15:42:33;13.50;99.90
2825;DHT22;1420;51.324;12.344;2023-10-08T15:45:01;13.40;99.90
2825;DHT22;1420;51.324;12.344;2023-10-08T15:47:28;13.30;99.90
2825;DHT22;1420;51.324;12.344;2023-10-08T15:49:55;13.40;99.90
2825;DHT22;1420;51.324;12.344;2023-10-08T15:52:22;13.50;99.90